createdAt,value
2022-08-07T00:00:42.800Z,102012.97
2022-08-07T00:03:13.099Z,102013.41
2022-08-07T00:05:58.935Z,102001.63
2022-08-07T00:08:44.272Z,102003.25
2022-08-07T00:11:20.025Z,101999.81
2022-08-07T00:13:58.634Z,101999.66
2022-08-07T00:16:31.115Z,101997.44
2022-08-07T00:19:05.971Z,101998.94
2022-08-07T00:21:57.361Z,101994.03
2022-08-07T00:24:21.864Z,101997.91
2022-08-07T00:26:58.884Z,101994.47
2022-08-07T00:29:37.857Z,101993.41
2022-08-07T00:32:14.065Z,101991.63
2022-08-07T00:34:42.676Z,102000.88
2022-08-07T00:37:13.387Z,101991.34
2022-08-07T00:39:45.228Z,101990.88
2022-08-07T00:42:29.006Z,101983.84
2022-08-07T00:44:57.386Z,101988.47
2022-08-07T00:48:08.692Z,101991.94
2022-08-07T00:50:33.087Z,101980.25
2022-08-07T00:53:05.523Z,101989.81
2022-08-07T00:56:03.233Z,101986.72
2022-08-07T00:58:41.792Z,101988.47
2022-08-07T01:01:15.045Z,101994.16
2022-08-07T01:03:55.928Z,101996.84
2022-08-07T01:06:28.556Z,101992.53
2022-08-07T01:08:58.411Z,102001.47
2022-08-07T01:12:27.671Z,101993.56
2022-08-07T01:14:16.760Z,101995.38
2022-08-07T01:16:52.259Z,102004.03
2022-08-07T01:19:25.761Z,102004.44
2022-08-07T01:22:16.206Z,102002.22
2022-08-07T01:24:51.436Z,101962.50
2022-08-07T01:27:20.131Z,101996.38
2022-08-07T01:30:00.698Z,101976.53
2022-08-07T01:32:29.502Z,102001.75
2022-08-07T01:34:58.777Z,101996.09
2022-08-07T01:37:29.453Z,101989.38
2022-08-07T01:40:07.790Z,101989.25
2022-08-07T01:42:57.251Z,101980.56
2022-08-07T01:45:40.895Z,101981.41
2022-08-07T01:48:29.775Z,101974.28
2022-08-07T01:52:02.765Z,101969.94
2022-08-07T01:54:08.894Z,101981.28
2022-08-07T01:56:49.263Z,101978.75
2022-08-07T01:59:31.021Z,101978.31
2022-08-07T02:02:12.645Z,101978.75
2022-08-07T02:05:06.503Z,101970.41
2022-08-07T02:07:50.103Z,101979.06
2022-08-07T02:10:27.016Z,101968.94
2022-08-07T02:13:01.861Z,101973.38
2022-08-07T02:15:39.964Z,101969.06
2022-08-07T02:18:13.087Z,101974.88
2022-08-07T02:20:48.738Z,101973.25
2022-08-07T02:23:26.481Z,101943.56
2022-08-07T02:26:31.144Z,101963.09
2022-08-07T02:29:04.504Z,101968.03
2022-08-07T02:31:33.302Z,101956.09
2022-08-07T02:34:11.569Z,101964.88
2022-08-07T02:36:51.912Z,101961.88
2022-08-07T02:39:43.030Z,101957.56
2022-08-07T02:42:16.353Z,101960.84
2022-08-07T02:44:49.783Z,101955.13
2022-08-07T02:47:23.951Z,101955.72
2022-08-07T02:50:07.668Z,101958.38
2022-08-07T02:52:48.699Z,101952.78
2022-08-07T02:55:27.533Z,101958.38
2022-08-07T02:58:04.033Z,101951.97
2022-08-07T03:00:47.119Z,101947.63
2022-08-07T03:03:22.659Z,101947.34
2022-08-07T03:06:06.582Z,101948.69
2022-08-07T03:08:46.281Z,101952.69
2022-08-07T03:11:15.958Z,101952.09
2022-08-07T03:13:49.654Z,101954.03
2022-08-07T03:16:22.828Z,101927.16
2022-08-07T03:18:57.877Z,101959.25
2022-08-07T03:21:28.398Z,101951.22
2022-08-07T03:24:20.022Z,101948.88
2022-08-07T03:26:59.173Z,101953.75
2022-08-07T03:29:38.659Z,101953.75
2022-08-07T03:32:17.078Z,101964.06
2022-08-07T03:35:00.829Z,101961.69
2022-08-07T03:37:46.294Z,101955.13
2022-08-07T03:40:27.495Z,101955.72
2022-08-07T03:43:01.608Z,101957.47
2022-08-07T03:45:43.606Z,101958.38
2022-08-07T03:48:17.182Z,101954.81
2022-08-07T03:50:55.734Z,101960.00
2022-08-07T03:53:50.228Z,101957.47
2022-08-07T03:56:32.835Z,101964.94
2022-08-07T03:59:08.891Z,101961.53
2022-08-07T04:01:45.514Z,101954.94
2022-08-07T04:04:18.112Z,101960.91
2022-08-07T04:06:51.041Z,101954.66
2022-08-07T04:09:23.313Z,101961.19
2022-08-07T04:12:27.804Z,101963.44
2022-08-07T04:14:46.289Z,101959.03
2022-08-07T04:17:21.588Z,101961.88
2022-08-07T04:20:01.811Z,101962.91
2022-08-07T04:22:33.428Z,101959.66
2022-08-07T04:25:12.175Z,101957.41
2022-08-07T04:27:44.197Z,101961.63
2022-08-07T04:30:21.432Z,101962.63
2022-08-07T04:33:14.045Z,101963.53
2022-08-07T04:35:50.491Z,101964.59
2022-08-07T04:38:21.794Z,101945.19
2022-08-07T04:40:52.796Z,101974.16
2022-08-07T04:44:12.906Z,101967.03
2022-08-07T04:46:59.374Z,101970.47
2022-08-07T04:49:57.366Z,101973.13
2022-08-07T04:52:35.359Z,101968.22
2022-08-07T04:55:15.526Z,101963.56
2022-08-07T04:58:42.276Z,101966.28
2022-08-07T05:01:04.844Z,101968.25
2022-08-07T05:04:06.866Z,101970.63
2022-08-07T05:06:51.607Z,101970.34
2022-08-07T05:09:43.060Z,101965.41
2022-08-07T05:12:27.092Z,101969.56
2022-08-07T05:15:21.708Z,101964.81
2022-08-07T05:18:10.522Z,101961.84
2022-08-07T05:20:44.797Z,101966.59
2022-08-07T05:23:18.979Z,101957.81
2022-08-07T05:26:10.797Z,101964.06
2022-08-07T05:28:40.801Z,101950.34
2022-08-07T05:31:17.882Z,101957.25
2022-08-07T05:34:00.957Z,101961.44
2022-08-07T05:36:39.515Z,101959.72
2022-08-07T05:40:06.323Z,101963.16
2022-08-07T05:42:12.489Z,101963.16
2022-08-07T05:44:52.729Z,101965.28
2022-08-07T05:47:38.442Z,101968.59
2022-08-07T05:50:21.866Z,101967.38
2022-08-07T05:52:58.201Z,101969.66
2022-08-07T05:56:03.030Z,101965.06
2022-08-07T05:58:22.104Z,101961.41
2022-08-07T06:01:12.169Z,101958.22
2022-08-07T06:03:56.456Z,101971.13
2022-08-07T06:06:37.338Z,101975.22
2022-08-07T06:09:16.685Z,101971.00
2022-08-07T06:11:51.811Z,101975.00
2022-08-07T06:14:28.890Z,101975.97
2022-08-07T06:17:07.202Z,101974.81
2022-08-07T06:19:58.314Z,101981.38
2022-08-07T06:22:36.915Z,101981.81
2022-08-07T06:25:21.464Z,101978.06
2022-08-07T06:28:04.053Z,101987.31
2022-08-07T06:30:37.946Z,101979.66
2022-08-07T06:33:16.141Z,101974.28
2022-08-07T06:36:06.863Z,101981.59
2022-08-07T06:38:37.791Z,101983.41
2022-08-07T06:41:13.075Z,101979.47
2022-08-07T06:43:59.464Z,101986.94
2022-08-07T06:46:39.938Z,101985.28
2022-08-07T06:49:08.307Z,101984.81
2022-08-07T06:51:49.433Z,101987.91
2022-08-07T06:55:28.523Z,101975.13
2022-08-07T06:57:10.336Z,101977.91
2022-08-07T07:00:12.029Z,101977.00
2022-08-07T07:02:53.741Z,101976.63
2022-08-07T07:06:03.075Z,101965.38
2022-08-07T07:08:18.591Z,101963.16
2022-08-07T07:10:57.766Z,101963.75
2022-08-07T07:13:43.574Z,101966.50
2022-08-07T07:16:30.731Z,101969.31
2022-08-07T07:19:55.948Z,101963.75
2022-08-07T07:22:12.132Z,101973.44
2022-08-07T07:25:02.724Z,101967.81
2022-08-07T07:28:01.900Z,101957.69
2022-08-07T07:30:39.997Z,101961.13
2022-08-07T07:33:13.669Z,101963.22
2022-08-07T07:36:04.819Z,101961.19
2022-08-07T07:38:36.158Z,101960.66
2022-08-07T07:41:08.799Z,101955.38
2022-08-07T07:44:13.600Z,101952.19
2022-08-07T07:46:37.326Z,101952.69
2022-08-07T07:50:34.516Z,101955.78
2022-08-07T07:52:18.098Z,101963.44
2022-08-07T07:54:52.979Z,101955.88
2022-08-07T07:57:44.090Z,101956.53
2022-08-07T08:00:21.076Z,101950.91
2022-08-07T08:03:04.548Z,101951.28
2022-08-07T08:05:56.458Z,101944.03
2022-08-07T08:08:35.374Z,101933.69
2022-08-07T08:11:16.457Z,101937.97
2022-08-07T08:13:58.735Z,101939.00
2022-08-07T08:16:38.184Z,101930.66
2022-08-07T08:20:15.692Z,101925.81
2022-08-07T08:22:54.310Z,101918.66
2022-08-07T08:25:49.040Z,101918.97
2022-08-07T08:28:24.018Z,101927.69
2022-08-07T08:31:14.713Z,101920.50
2022-08-07T08:33:55.327Z,101919.44
2022-08-07T08:36:29.728Z,101926.53
2022-08-07T08:39:01.850Z,101929.13
2022-08-07T08:41:57.037Z,101930.38
2022-08-07T08:44:31.551Z,101924.94
2022-08-07T08:47:11.421Z,101923.28
2022-08-07T08:50:05.715Z,101911.50
2022-08-07T08:52:54.293Z,101917.75
2022-08-07T08:55:54.914Z,101919.56
2022-08-07T08:58:28.877Z,101922.91
2022-08-07T09:01:14.540Z,101926.03
2022-08-07T09:03:52.868Z,101910.78
2022-08-07T09:06:33.955Z,101914.25
2022-08-07T09:09:13.522Z,101905.47
2022-08-07T09:12:19.976Z,101914.03
2022-08-07T09:16:22.154Z,101909.28
2022-08-07T09:17:59.397Z,101907.25
2022-08-07T09:20:57.726Z,101902.34
2022-08-07T09:24:32.113Z,101901.69
2022-08-07T09:26:32.422Z,101905.44
2022-08-07T09:30:04.427Z,101901.31
2022-08-07T09:32:17.187Z,101901.59
2022-08-07T09:34:53.652Z,101901.41
2022-08-07T09:37:48.559Z,101897.09
2022-08-07T09:40:27.173Z,101891.19
2022-08-07T09:43:01.859Z,101891.41
2022-08-07T09:47:42.689Z,101884.53
2022-08-07T09:48:55.896Z,101876.56
2022-08-07T09:52:10.121Z,101883.97
2022-08-07T09:54:40.223Z,101873.44
2022-08-07T09:58:01.155Z,101866.75
2022-08-07T10:00:42.624Z,101865.09
2022-08-07T10:04:05.253Z,101868.91
2022-08-07T10:07:03.247Z,101856.78
2022-08-07T10:10:03.011Z,101861.66
2022-08-07T10:12:55.224Z,101860.44
2022-08-07T10:15:50.714Z,101857.88
2022-08-07T10:18:53.835Z,101847.72
2022-08-07T10:22:16.332Z,101836.25
2022-08-07T10:25:08.457Z,101863.81
2022-08-07T10:27:51.356Z,101843.88
2022-08-07T10:30:37.657Z,101848.53
2022-08-07T10:34:05.193Z,101852.03
2022-08-07T10:36:29.934Z,101843.84
2022-08-07T10:39:11.840Z,101836.69
2022-08-07T10:41:53.863Z,101841.56
2022-08-07T10:44:45.258Z,101837.16
2022-08-07T10:47:26.615Z,101830.06
2022-08-07T10:50:07.080Z,101832.63
2022-08-07T10:52:51.456Z,101827.75
2022-08-07T10:55:36.876Z,101823.31
2022-08-07T10:58:25.055Z,101824.97
2022-08-07T11:01:15.138Z,101820.56
2022-08-07T11:04:23.343Z,101816.69
2022-08-07T11:07:56.879Z,101809.81
2022-08-07T11:10:20.686Z,101805.47
2022-08-07T11:13:01.706Z,101802.03
2022-08-07T11:15:35.510Z,101799.97
2022-08-07T11:18:14.505Z,101796.13
2022-08-07T11:20:53.103Z,101792.91
2022-08-07T11:23:30.740Z,101789.25
2022-08-07T11:26:14.405Z,101789.34
2022-08-07T11:28:55.180Z,101787.25
2022-08-07T11:31:33.332Z,101777.41
2022-08-07T11:34:10.980Z,101787.94
2022-08-07T11:36:49.632Z,101782.16
2022-08-07T11:39:59.346Z,101776.38
2022-08-07T11:42:29.551Z,101777.03
2022-08-07T11:45:20.749Z,101768.19
2022-08-07T11:48:30.000Z,101766.03
2022-08-07T11:51:42.039Z,101762.09
2022-08-07T11:54:31.510Z,101762.00
2022-08-07T11:57:18.792Z,101761.31
2022-08-07T12:00:10.171Z,101759.44
2022-08-07T12:03:07.937Z,101760.19
2022-08-07T12:06:37.461Z,101752.09
2022-08-07T12:09:07.502Z,101757.72
2022-08-07T12:12:09.597Z,101752.78
2022-08-07T12:15:01.653Z,101749.88
2022-08-07T12:22:38.781Z,101745.84
2022-08-07T12:26:06.190Z,101738.88
2022-08-07T12:32:33.741Z,101728.50
2022-08-07T12:35:05.749Z,101728.78
2022-08-07T12:38:09.823Z,101730.88
2022-08-07T12:40:47.467Z,101708.09
2022-08-07T12:44:02.861Z,101729.41
2022-08-07T12:46:32.274Z,101726.91
2022-08-07T12:49:39.729Z,101726.16
2022-08-07T12:52:14.443Z,101719.41
2022-08-07T12:55:03.767Z,101722.06
2022-08-07T12:57:38.802Z,101715.59
2022-08-07T13:00:30.956Z,101706.38
2022-08-07T13:03:13.044Z,101720.00
2022-08-07T13:06:17.273Z,101711.16
2022-08-07T13:09:33.399Z,101708.69
2022-08-07T13:12:02.525Z,101707.56
2022-08-07T13:14:50.851Z,101713.53
2022-08-07T13:17:42.539Z,101704.38
2022-08-07T13:20:17.782Z,101704.94
2022-08-07T13:22:53.790Z,101704.41
2022-08-07T13:25:34.476Z,101698.94
2022-08-07T13:28:14.363Z,101697.78
2022-08-07T13:31:01.519Z,101688.88
2022-08-07T13:34:32.907Z,101687.03
2022-08-07T13:36:32.668Z,101680.84
2022-08-07T13:39:12.960Z,101681.47
2022-08-07T13:41:58.794Z,101682.81
2022-08-07T13:44:34.613Z,101682.09
2022-08-07T13:47:09.321Z,101663.50
2022-08-07T13:50:35.200Z,101664.22
2022-08-07T13:52:39.658Z,101656.38
2022-08-07T13:55:19.724Z,101656.88
2022-08-07T13:58:28.067Z,101647.16
2022-08-07T14:01:09.376Z,101657.03
2022-08-07T14:04:05.355Z,101647.16
2022-08-07T14:06:33.015Z,101648.06
2022-08-07T14:09:04.702Z,101652.41
2022-08-07T14:11:53.630Z,101646.69
2022-08-07T14:14:39.953Z,101633.09
2022-08-07T14:17:13.104Z,101637.25
2022-08-07T14:20:39.720Z,101639.75
2022-08-07T14:23:00.166Z,101639.50
2022-08-07T14:25:39.149Z,101644.78
2022-08-07T14:28:13.618Z,101642.59
2022-08-07T14:30:52.225Z,101646.63
2022-08-07T14:33:22.383Z,101643.03
2022-08-07T14:35:56.347Z,101643.09
2022-08-07T14:38:31.260Z,101635.19
2022-08-07T14:41:04.346Z,101634.28
2022-08-07T14:43:58.833Z,101633.66
2022-08-07T14:46:32.011Z,101637.09
2022-08-07T14:49:55.782Z,101631.44
2022-08-07T14:54:43.364Z,101622.13
2022-08-07T14:57:15.046Z,101622.84
2022-08-07T15:00:07.021Z,101626.69
2022-08-07T15:02:37.302Z,101624.31
2022-08-07T15:05:26.731Z,101618.38
2022-08-07T15:07:56.477Z,101619.38
2022-08-07T15:10:29.898Z,101617.22
2022-08-07T15:15:54.431Z,101612.16
2022-08-07T15:18:35.770Z,101606.56
2022-08-07T15:21:08.193Z,101605.00
2022-08-07T15:25:15.977Z,101609.69
2022-08-07T15:26:56.823Z,101602.72
2022-08-07T15:30:08.968Z,101601.22
2022-08-07T15:32:39.879Z,101613.13
2022-08-07T15:35:17.930Z,101609.41
2022-08-07T15:38:17.796Z,101604.81
2022-08-07T15:40:48.907Z,101598.84
2022-08-07T15:43:55.926Z,101597.75
2022-08-07T15:46:31.564Z,101600.06
2022-08-07T15:52:02.862Z,101590.63
2022-08-07T15:54:39.528Z,101587.00
2022-08-07T15:57:28.248Z,101599.47
2022-08-07T16:00:04.103Z,101591.13
2022-08-07T16:02:41.264Z,101597.00
2022-08-07T16:05:15.771Z,101585.47
2022-08-07T16:08:31.978Z,101583.81
2022-08-07T16:10:37.511Z,101586.09
2022-08-07T16:13:57.854Z,101591.09
2022-08-07T16:16:47.682Z,101587.22
2022-08-07T16:19:59.003Z,101585.41
2022-08-07T16:23:05.291Z,101594.31
2022-08-07T16:25:55.394Z,101569.41
2022-08-07T16:30:07.140Z,101590.16
2022-08-07T16:31:51.923Z,101584.28
2022-08-07T16:34:33.426Z,101578.69
2022-08-07T16:38:05.857Z,101587.66
2022-08-07T16:41:10.831Z,101574.47
2022-08-07T16:44:46.367Z,101574.56
2022-08-07T16:47:45.479Z,101573.31
2022-08-07T16:50:52.698Z,101577.06
2022-08-07T16:54:02.476Z,101558.25
2022-08-07T16:56:37.512Z,101580.06
2022-08-07T16:59:17.374Z,101575.88
2022-08-07T17:02:03.182Z,101576.22
2022-08-07T17:04:57.674Z,101575.38
2022-08-07T17:07:55.214Z,101564.66
2022-08-07T17:10:38.346Z,101569.78
2022-08-07T17:13:40.341Z,101563.75
2022-08-07T17:16:27.022Z,101563.50
2022-08-07T17:19:04.959Z,101567.75
2022-08-07T17:21:52.314Z,101573.16
2022-08-07T17:24:47.113Z,101572.19
2022-08-07T17:27:22.217Z,101572.47
2022-08-07T17:30:15.891Z,101563.94
2022-08-07T17:34:10.229Z,101562.72
2022-08-07T17:36:03.759Z,101561.34
2022-08-07T17:38:36.892Z,101566.47
2022-08-07T17:42:02.938Z,101562.13
2022-08-07T17:44:15.543Z,101561.06
2022-08-07T17:47:08.512Z,101562.41
2022-08-07T17:49:54.801Z,101559.47
2022-08-07T17:52:35.833Z,101556.63
2022-08-07T17:55:12.614Z,101557.50
2022-08-07T17:57:58.540Z,101556.44
2022-08-07T18:00:34.646Z,101563.09
2022-08-07T18:03:21.721Z,101561.22
2022-08-07T18:06:09.384Z,101556.78
2022-08-07T18:09:01.968Z,101550.41
2022-08-07T18:12:16.843Z,101558.13
2022-08-07T18:14:37.531Z,101555.09
2022-08-07T18:18:46.656Z,101564.19
2022-08-07T18:21:10.312Z,101567.78
2022-08-07T18:23:42.335Z,101568.50
2022-08-07T18:26:02.336Z,101550.94
2022-08-07T18:28:58.545Z,101573.53
2022-08-07T18:31:50.346Z,101572.38
2022-08-07T18:34:40.776Z,101576.94
2022-08-07T18:38:55.755Z,101577.25
2022-08-07T18:40:43.850Z,101589.59
2022-08-07T18:43:36.908Z,101590.78
2022-08-07T18:46:27.292Z,101584.16
2022-08-07T18:50:30.132Z,101594.25
2022-08-07T18:52:34.908Z,101590.69
2022-08-07T18:55:40.778Z,101596.13
2022-08-07T18:58:30.841Z,101601.59
2022-08-07T19:02:31.630Z,101590.56
2022-08-07T19:04:06.480Z,101603.75
2022-08-07T19:06:51.389Z,101597.25
2022-08-07T19:09:57.510Z,101609.09
2022-08-07T19:12:27.079Z,101611.44
2022-08-07T19:16:03.087Z,101612.22
2022-08-07T19:18:13.669Z,101611.00
2022-08-07T19:21:08.898Z,101611.41
2022-08-07T19:23:58.789Z,101626.25
2022-08-07T19:26:55.599Z,101626.63
2022-08-07T19:31:04.083Z,101625.13
2022-08-07T19:32:28.919Z,101625.59
2022-08-07T19:35:12.586Z,101631.16
2022-08-07T19:37:56.562Z,101628.75
2022-08-07T19:40:30.969Z,101640.97
2022-08-07T19:43:02.972Z,101640.75
2022-08-07T19:46:07.860Z,101648.22
2022-08-07T19:48:43.078Z,101650.44
2022-08-07T19:51:20.626Z,101623.25
2022-08-07T19:54:44.263Z,101657.50
2022-08-07T19:58:01.509Z,101660.53
2022-08-07T19:59:46.996Z,101658.41
2022-08-07T20:02:30.066Z,101655.53
2022-08-07T20:05:07.956Z,101660.44
2022-08-07T20:07:46.317Z,101649.22
2022-08-07T20:10:36.033Z,101660.00
2022-08-07T20:13:22.534Z,101658.78
2022-08-07T20:15:53.796Z,101661.69
2022-08-07T20:18:34.407Z,101642.69
2022-08-07T20:21:14.571Z,101656.56
2022-08-07T20:23:54.347Z,101657.69
2022-08-07T20:26:29.963Z,101663.25
2022-08-07T20:29:47.031Z,101666.25
2022-08-07T20:32:02.271Z,101661.34
2022-08-07T20:34:50.210Z,101666.88
2022-08-07T20:37:26.318Z,101658.56
2022-08-07T20:40:03.871Z,101654.88
2022-08-07T20:42:34.505Z,101655.19
2022-08-07T20:45:33.297Z,101660.84
2022-08-07T20:47:58.306Z,101663.84
2022-08-07T20:50:30.443Z,101666.81
2022-08-07T20:53:00.504Z,101664.81
2022-08-07T20:55:32.282Z,101668.06
2022-08-07T20:58:09.093Z,101675.13
2022-08-07T21:00:53.479Z,101668.03
2022-08-07T21:03:25.910Z,101667.91
2022-08-07T21:06:12.375Z,101666.91
2022-08-07T21:09:01.081Z,101660.50
2022-08-07T21:11:46.184Z,101661.94
2022-08-07T21:14:32.729Z,101657.38
2022-08-07T21:18:03.076Z,101655.34
2022-08-07T21:20:05.026Z,101659.44
2022-08-07T21:22:35.587Z,101662.78
2022-08-07T21:25:14.763Z,101656.56
2022-08-07T21:27:54.155Z,101662.09
2022-08-07T21:30:38.740Z,101666.84
2022-08-07T21:33:16.278Z,101656.16
2022-08-07T21:36:05.591Z,101669.81
2022-08-07T21:38:54.418Z,101675.44
2022-08-07T21:41:38.193Z,101667.41
2022-08-07T21:44:34.432Z,101667.84
2022-08-07T21:47:12.291Z,101675.16
2022-08-07T21:50:00.896Z,101677.34
2022-08-07T21:52:40.785Z,101669.34
2022-08-07T21:55:29.809Z,101675.84
2022-08-07T21:58:12.239Z,101677.03
2022-08-07T22:00:54.154Z,101678.19
2022-08-07T22:03:31.452Z,101669.31
2022-08-07T22:06:05.147Z,101678.47
2022-08-07T22:08:40.269Z,101681.41
2022-08-07T22:11:17.562Z,101682.56
2022-08-07T22:13:55.065Z,101690.22
2022-08-07T22:16:45.429Z,101683.88
2022-08-07T22:19:23.560Z,101669.09
2022-08-07T22:22:20.884Z,101685.56
2022-08-07T22:25:03.175Z,101686.84
2022-08-07T22:28:03.142Z,101696.00
2022-08-07T22:30:37.122Z,101690.28
2022-08-07T22:33:18.246Z,101687.75
2022-08-07T22:36:13.575Z,101690.31
2022-08-07T22:38:49.809Z,101696.97
2022-08-07T22:41:29.213Z,101701.91
2022-08-07T22:44:22.414Z,101701.53
2022-08-07T22:47:33.185Z,101695.16
2022-08-07T22:50:29.017Z,101709.19
2022-08-07T22:53:26.853Z,101699.25
2022-08-07T22:56:19.988Z,101710.06
2022-08-07T22:59:26.256Z,101704.59
2022-08-07T23:02:02.348Z,101706.66
2022-08-07T23:04:57.044Z,101708.81
2022-08-07T23:07:43.005Z,101710.16
2022-08-07T23:10:37.747Z,101726.84
2022-08-07T23:13:49.151Z,101722.13
2022-08-07T23:16:44.607Z,101715.75
2022-08-07T23:19:58.582Z,101709.63
2022-08-07T23:22:48.707Z,101705.81
2022-08-07T23:25:34.016Z,101696.63
2022-08-07T23:28:29.047Z,101692.53
2022-08-07T23:31:13.855Z,101703.75
2022-08-07T23:34:33.398Z,101703.38
2022-08-07T23:37:20.512Z,101701.31
2022-08-07T23:40:07.576Z,101700.66
2022-08-07T23:42:47.756Z,101702.94
2022-08-07T23:45:33.143Z,101704.97
2022-08-07T23:48:47.752Z,101711.41
2022-08-07T23:53:00.971Z,101706.31
2022-08-07T23:54:36.305Z,101708.50
2022-08-07T23:57:18.777Z,101693.69
